sensor_id;sensor_type;location;lat;lon;timestamp;P1;durP1;ratioP1;P2;durP2;ratioP2
37349;SDS011;23231;52.358;4.926;2023-05-20T00:02:38;14.82;;;5.68;;
37349;SDS011;23231;52.358;4.926;2023-05-20T00:07:39;13.15;;;5.82;;
37349;SDS011;23231;52.358;4.926;2023-05-20T00:12:40;14.93;;;5.90;;
37349;SDS011;23231;52.358;4.926;2023-05-20T00:17:40;13.68;;;6.05;;
37349;SDS011;23231;52.358;4.926;2023-05-20T00:22:40;11.88;;;6.80;;
37349;SDS011;23231;52.358;4.926;2023-05-20T00:27:41;13.73;;;6.38;;
37349;SDS011;23231;52.358;4.926;2023-05-20T00:32:41;14.75;;;6.13;;
37349;SDS011;23231;52.358;4.926;2023-05-20T00:37:42;14.80;;;6.80;;
37349;SDS011;23231;52.358;4.926;2023-05-20T00:42:42;14.13;;;6.13;;
37349;SDS011;23231;52.358;4.926;2023-05-20T00:47:42;14.07;;;6.25;;
37349;SDS011;23231;52.358;4.926;2023-05-20T00:52:43;13.95;;;6.47;;
37349;SDS011;23231;52.358;4.926;2023-05-20T00:57:46;11.70;;;5.82;;
37349;SDS011;23231;52.358;4.926;2023-05-20T01:02:47;15.25;;;6.15;;
37349;SDS011;23231;52.358;4.926;2023-05-20T01:07:48;12.15;;;5.85;;
37349;SDS011;23231;52.358;4.926;2023-05-20T01:12:49;16.88;;;6.53;;
37349;SDS011;23231;52.358;4.926;2023-05-20T01:17:55;13.23;;;6.95;;
37349;SDS011;23231;52.358;4.926;2023-05-20T01:23:00;9.90;;;6.00;;
37349;SDS011;23231;52.358;4.926;2023-05-20T01:28:00;13.05;;;6.15;;
37349;SDS011;23231;52.358;4.926;2023-05-20T01:33:03;11.30;;;6.03;;
37349;SDS011;23231;52.358;4.926;2023-05-20T01:38:05;14.65;;;6.75;;
37349;SDS011;23231;52.358;4.926;2023-05-20T01:43:06;14.60;;;6.10;;
37349;SDS011;23231;52.358;4.926;2023-05-20T01:48:09;14.30;;;6.10;;
37349;SDS011;23231;52.358;4.926;2023-05-20T01:53:10;11.25;;;5.60;;
37349;SDS011;23231;52.358;4.926;2023-05-20T01:58:12;12.38;;;5.60;;
37349;SDS011;23231;52.358;4.926;2023-05-20T02:03:12;12.65;;;6.13;;
37349;SDS011;23231;52.358;4.926;2023-05-20T02:08:13;13.95;;;6.80;;
37349;SDS011;23231;52.358;4.926;2023-05-20T02:13:13;11.90;;;5.63;;
37349;SDS011;23231;52.358;4.926;2023-05-20T02:18:13;11.15;;;5.60;;
37349;SDS011;23231;52.358;4.926;2023-05-20T02:23:17;17.45;;;6.07;;
37349;SDS011;23231;52.358;4.926;2023-05-20T02:28:17;12.30;;;6.03;;
37349;SDS011;23231;52.358;4.926;2023-05-20T02:33:18;10.95;;;6.15;;
37349;SDS011;23231;52.358;4.926;2023-05-20T02:38:19;12.13;;;5.80;;
37349;SDS011;23231;52.358;4.926;2023-05-20T02:43:19;10.40;;;5.80;;
37349;SDS011;23231;52.358;4.926;2023-05-20T02:48:23;9.93;;;5.30;;
37349;SDS011;23231;52.358;4.926;2023-05-20T02:53:23;15.35;;;6.03;;
37349;SDS011;23231;52.358;4.926;2023-05-20T02:58:24;11.07;;;5.70;;
37349;SDS011;23231;52.358;4.926;2023-05-20T03:03:26;8.88;;;5.15;;
37349;SDS011;23231;52.358;4.926;2023-05-20T03:08:26;12.70;;;6.20;;
37349;SDS011;23231;52.358;4.926;2023-05-20T03:13:27;13.40;;;5.50;;
37349;SDS011;23231;52.358;4.926;2023-05-20T03:18:27;10.70;;;5.85;;
37349;SDS011;23231;52.358;4.926;2023-05-20T03:23:28;14.55;;;5.95;;
37349;SDS011;23231;52.358;4.926;2023-05-20T03:28:28;10.88;;;5.97;;
37349;SDS011;23231;52.358;4.926;2023-05-20T03:33:29;10.27;;;5.70;;
37349;SDS011;23231;52.358;4.926;2023-05-20T03:38:30;11.43;;;5.38;;
37349;SDS011;23231;52.358;4.926;2023-05-20T03:43:30;12.23;;;6.65;;
37349;SDS011;23231;52.358;4.926;2023-05-20T03:48:31;12.40;;;5.80;;
37349;SDS011;23231;52.358;4.926;2023-05-20T03:53:31;14.13;;;6.35;;
37349;SDS011;23231;52.358;4.926;2023-05-20T03:58:31;12.77;;;6.10;;
37349;SDS011;23231;52.358;4.926;2023-05-20T04:03:32;12.50;;;5.65;;
37349;SDS011;23231;52.358;4.926;2023-05-20T04:08:33;11.32;;;6.13;;
37349;SDS011;23231;52.358;4.926;2023-05-20T04:13:35;17.23;;;6.30;;
37349;SDS011;23231;52.358;4.926;2023-05-20T04:18:35;12.43;;;6.03;;
37349;SDS011;23231;52.358;4.926;2023-05-20T04:23:37;10.20;;;6.35;;
37349;SDS011;23231;52.358;4.926;2023-05-20T04:28:38;14.93;;;5.80;;
37349;SDS011;23231;52.358;4.926;2023-05-20T04:33:40;13.38;;;5.82;;
37349;SDS011;23231;52.358;4.926;2023-05-20T04:38:42;10.35;;;5.22;;
37349;SDS011;23231;52.358;4.926;2023-05-20T04:43:43;10.85;;;5.95;;
37349;SDS011;23231;52.358;4.926;2023-05-20T04:48:44;11.73;;;5.30;;
37349;SDS011;23231;52.358;4.926;2023-05-20T04:53:47;12.75;;;5.88;;
37349;SDS011;23231;52.358;4.926;2023-05-20T04:58:49;10.15;;;5.03;;
37349;SDS011;23231;52.358;4.926;2023-05-20T05:03:50;12.00;;;5.45;;
37349;SDS011;23231;52.358;4.926;2023-05-20T05:08:51;12.80;;;5.32;;
37349;SDS011;23231;52.358;4.926;2023-05-20T05:13:51;10.27;;;5.53;;
37349;SDS011;23231;52.358;4.926;2023-05-20T05:18:52;12.07;;;5.90;;
37349;SDS011;23231;52.358;4.926;2023-05-20T05:23:52;12.50;;;5.40;;
37349;SDS011;23231;52.358;4.926;2023-05-20T05:28:55;11.68;;;4.78;;
37349;SDS011;23231;52.358;4.926;2023-05-20T05:33:56;10.20;;;5.10;;
37349;SDS011;23231;52.358;4.926;2023-05-20T05:38:56;8.25;;;5.22;;
37349;SDS011;23231;52.358;4.926;2023-05-20T05:43:57;14.57;;;5.40;;
37349;SDS011;23231;52.358;4.926;2023-05-20T05:48:58;10.43;;;4.97;;
37349;SDS011;23231;52.358;4.926;2023-05-20T05:53:58;8.93;;;5.05;;
37349;SDS011;23231;52.358;4.926;2023-05-20T05:58:59;10.63;;;5.60;;
37349;SDS011;23231;52.358;4.926;2023-05-20T06:03:59;13.68;;;5.35;;
37349;SDS011;23231;52.358;4.926;2023-05-20T06:09:00;10.23;;;5.05;;
37349;SDS011;23231;52.358;4.926;2023-05-20T06:14:02;10.98;;;4.93;;
37349;SDS011;23231;52.358;4.926;2023-05-20T06:19:03;9.35;;;5.40;;
37349;SDS011;23231;52.358;4.926;2023-05-20T06:24:04;11.55;;;5.10;;
37349;SDS011;23231;52.358;4.926;2023-05-20T06:29:05;9.20;;;5.30;;
37349;SDS011;23231;52.358;4.926;2023-05-20T06:34:05;11.40;;;5.60;;
37349;SDS011;23231;52.358;4.926;2023-05-20T06:39:05;9.15;;;5.10;;
37349;SDS011;23231;52.358;4.926;2023-05-20T06:44:11;10.23;;;5.10;;
37349;SDS011;23231;52.358;4.926;2023-05-20T06:49:11;8.13;;;4.80;;
37349;SDS011;23231;52.358;4.926;2023-05-20T06:54:12;9.05;;;4.70;;
37349;SDS011;23231;52.358;4.926;2023-05-20T06:59:12;8.18;;;4.68;;
37349;SDS011;23231;52.358;4.926;2023-05-20T07:04:13;11.25;;;4.57;;
37349;SDS011;23231;52.358;4.926;2023-05-20T07:09:13;9.82;;;4.72;;
37349;SDS011;23231;52.358;4.926;2023-05-20T07:14:13;11.50;;;5.25;;
37349;SDS011;23231;52.358;4.926;2023-05-20T07:19:14;9.57;;;5.38;;
37349;SDS011;23231;52.358;4.926;2023-05-20T07:24:17;9.50;;;4.68;;
37349;SDS011;23231;52.358;4.926;2023-05-20T07:29:18;11.60;;;5.20;;
37349;SDS011;23231;52.358;4.926;2023-05-20T07:34:18;9.13;;;4.97;;
37349;SDS011;23231;52.358;4.926;2023-05-20T07:39:19;9.02;;;4.88;;
37349;SDS011;23231;52.358;4.926;2023-05-20T07:44:19;9.13;;;4.40;;
37349;SDS011;23231;52.358;4.926;2023-05-20T07:49:21;6.72;;;4.82;;
37349;SDS011;23231;52.358;4.926;2023-05-20T07:54:21;9.23;;;5.15;;
37349;SDS011;23231;52.358;4.926;2023-05-20T07:59:22;10.65;;;4.90;;
37349;SDS011;23231;52.358;4.926;2023-05-20T08:04:23;6.82;;;4.40;;
37349;SDS011;23231;52.358;4.926;2023-05-20T08:09:23;8.35;;;4.95;;
37349;SDS011;23231;52.358;4.926;2023-05-20T08:14:24;13.05;;;4.95;;
37349;SDS011;23231;52.358;4.926;2023-05-20T08:19:26;9.13;;;4.75;;
37349;SDS011;23231;52.358;4.926;2023-05-20T08:24:26;9.93;;;4.57;;
37349;SDS011;23231;52.358;4.926;2023-05-20T08:29:27;7.03;;;4.25;;
37349;SDS011;23231;52.358;4.926;2023-05-20T08:34:27;10.40;;;5.15;;
37349;SDS011;23231;52.358;4.926;2023-05-20T08:39:28;7.90;;;4.32;;
37349;SDS011;23231;52.358;4.926;2023-05-20T08:44:28;8.43;;;4.25;;
37349;SDS011;23231;52.358;4.926;2023-05-20T08:49:29;8.05;;;4.85;;
37349;SDS011;23231;52.358;4.926;2023-05-20T08:54:43;7.05;;;4.03;;
37349;SDS011;23231;52.358;4.926;2023-05-20T08:59:45;7.88;;;4.07;;
37349;SDS011;23231;52.358;4.926;2023-05-20T09:04:46;7.47;;;4.03;;
37349;SDS011;23231;52.358;4.926;2023-05-20T09:09:46;7.30;;;4.18;;
37349;SDS011;23231;52.358;4.926;2023-05-20T09:14:47;7.68;;;3.75;;
37349;SDS011;23231;52.358;4.926;2023-05-20T09:19:51;7.03;;;4.07;;
37349;SDS011;23231;52.358;4.926;2023-05-20T09:24:52;5.73;;;3.73;;
37349;SDS011;23231;52.358;4.926;2023-05-20T09:29:53;9.80;;;4.13;;
37349;SDS011;23231;52.358;4.926;2023-05-20T09:34:53;7.70;;;4.00;;
37349;SDS011;23231;52.358;4.926;2023-05-20T09:39:55;6.38;;;3.67;;
37349;SDS011;23231;52.358;4.926;2023-05-20T09:45:05;6.25;;;3.72;;
37349;SDS011;23231;52.358;4.926;2023-05-20T09:50:08;8.18;;;4.15;;
37349;SDS011;23231;52.358;4.926;2023-05-20T09:55:09;7.38;;;3.80;;
37349;SDS011;23231;52.358;4.926;2023-05-20T10:00:10;10.60;;;3.97;;
37349;SDS011;23231;52.358;4.926;2023-05-20T10:05:36;6.22;;;3.80;;
37349;SDS011;23231;52.358;4.926;2023-05-20T10:21:13;7.22;;;3.50;;
37349;SDS011;23231;52.358;4.926;2023-05-20T10:26:15;7.03;;;3.47;;
37349;SDS011;23231;52.358;4.926;2023-05-20T10:31:20;6.15;;;3.30;;
37349;SDS011;23231;52.358;4.926;2023-05-20T10:36:25;5.72;;;2.92;;
37349;SDS011;23231;52.358;4.926;2023-05-20T10:46:27;4.50;;;2.70;;
37349;SDS011;23231;52.358;4.926;2023-05-20T10:51:28;8.05;;;2.85;;
37349;SDS011;23231;52.358;4.926;2023-05-20T10:56:31;6.85;;;2.75;;
37349;SDS011;23231;52.358;4.926;2023-05-20T11:01:31;5.03;;;2.40;;
37349;SDS011;23231;52.358;4.926;2023-05-20T11:06:33;5.47;;;2.28;;
37349;SDS011;23231;52.358;4.926;2023-05-20T11:11:34;4.72;;;2.28;;
37349;SDS011;23231;52.358;4.926;2023-05-20T11:16:37;5.07;;;2.60;;
37349;SDS011;23231;52.358;4.926;2023-05-20T11:21:41;4.97;;;2.50;;
37349;SDS011;23231;52.358;4.926;2023-05-20T11:26:43;4.53;;;2.58;;
37349;SDS011;23231;52.358;4.926;2023-05-20T11:31:44;4.43;;;2.40;;
37349;SDS011;23231;52.358;4.926;2023-05-20T11:36:44;5.53;;;2.28;;
37349;SDS011;23231;52.358;4.926;2023-05-20T11:41:45;6.03;;;2.10;;
37349;SDS011;23231;52.358;4.926;2023-05-20T11:46:47;4.93;;;2.20;;
37349;SDS011;23231;52.358;4.926;2023-05-20T11:51:47;4.93;;;1.90;;
37349;SDS011;23231;52.358;4.926;2023-05-20T11:56:49;5.45;;;2.30;;
37349;SDS011;23231;52.358;4.926;2023-05-20T12:01:49;5.60;;;2.33;;
37349;SDS011;23231;52.358;4.926;2023-05-20T12:06:50;7.07;;;2.15;;
37349;SDS011;23231;52.358;4.926;2023-05-20T12:11:52;6.22;;;2.25;;
37349;SDS011;23231;52.358;4.926;2023-05-20T12:16:54;5.53;;;2.15;;
37349;SDS011;23231;52.358;4.926;2023-05-20T12:21:55;4.10;;;1.95;;
37349;SDS011;23231;52.358;4.926;2023-05-20T12:26:56;4.72;;;2.30;;
37349;SDS011;23231;52.358;4.926;2023-05-20T12:31:56;3.63;;;2.10;;
37349;SDS011;23231;52.358;4.926;2023-05-20T12:36:57;6.13;;;2.42;;
37349;SDS011;23231;52.358;4.926;2023-05-20T12:41:57;8.77;;;2.17;;
37349;SDS011;23231;52.358;4.926;2023-05-20T12:46:57;7.95;;;2.30;;
37349;SDS011;23231;52.358;4.926;2023-05-20T12:51:58;7.10;;;2.10;;
37349;SDS011;23231;52.358;4.926;2023-05-20T12:56:58;5.70;;;2.38;;
37349;SDS011;23231;52.358;4.926;2023-05-20T13:01:59;7.72;;;2.50;;
37349;SDS011;23231;52.358;4.926;2023-05-20T13:07:00;4.88;;;2.00;;
37349;SDS011;23231;52.358;4.926;2023-05-20T13:12:00;4.85;;;2.35;;
37349;SDS011;23231;52.358;4.926;2023-05-20T13:17:01;7.28;;;2.58;;
37349;SDS011;23231;52.358;4.926;2023-05-20T13:22:01;6.53;;;2.42;;
37349;SDS011;23231;52.358;4.926;2023-05-20T13:27:01;5.97;;;2.47;;
37349;SDS011;23231;52.358;4.926;2023-05-20T13:32:03;4.35;;;2.30;;
37349;SDS011;23231;52.358;4.926;2023-05-20T13:37:04;5.80;;;2.55;;
37349;SDS011;23231;52.358;4.926;2023-05-20T13:42:05;5.03;;;2.30;;
37349;SDS011;23231;52.358;4.926;2023-05-20T13:47:05;5.68;;;2.60;;
37349;SDS011;23231;52.358;4.926;2023-05-20T13:52:06;5.72;;;2.03;;
37349;SDS011;23231;52.358;4.926;2023-05-20T13:57:10;5.15;;;2.60;;
37349;SDS011;23231;52.358;4.926;2023-05-20T14:02:11;7.78;;;3.47;;
37349;SDS011;23231;52.358;4.926;2023-05-20T14:07:11;6.13;;;2.50;;
37349;SDS011;23231;52.358;4.926;2023-05-20T14:12:12;6.57;;;2.13;;
37349;SDS011;23231;52.358;4.926;2023-05-20T14:17:12;6.43;;;2.50;;
37349;SDS011;23231;52.358;4.926;2023-05-20T14:22:13;6.18;;;2.70;;
37349;SDS011;23231;52.358;4.926;2023-05-20T14:27:15;4.78;;;2.20;;
37349;SDS011;23231;52.358;4.926;2023-05-20T14:32:16;6.88;;;3.50;;
37349;SDS011;23231;52.358;4.926;2023-05-20T14:37:16;5.93;;;2.58;;
37349;SDS011;23231;52.358;4.926;2023-05-20T14:42:16;4.03;;;2.10;;
37349;SDS011;23231;52.358;4.926;2023-05-20T14:47:17;7.15;;;2.60;;
37349;SDS011;23231;52.358;4.926;2023-05-20T14:52:18;6.15;;;2.58;;
37349;SDS011;23231;52.358;4.926;2023-05-20T14:57:18;5.85;;;2.70;;
37349;SDS011;23231;52.358;4.926;2023-05-20T15:02:19;6.93;;;2.70;;
37349;SDS011;23231;52.358;4.926;2023-05-20T15:07:20;7.60;;;3.00;;
37349;SDS011;23231;52.358;4.926;2023-05-20T15:12:20;5.70;;;2.65;;
37349;SDS011;23231;52.358;4.926;2023-05-20T15:17:20;6.57;;;2.50;;
37349;SDS011;23231;52.358;4.926;2023-05-20T15:22:21;7.60;;;2.78;;
37349;SDS011;23231;52.358;4.926;2023-05-20T15:27:21;5.55;;;2.90;;
37349;SDS011;23231;52.358;4.926;2023-05-20T15:32:23;10.57;;;2.80;;
37349;SDS011;23231;52.358;4.926;2023-05-20T15:37:23;6.40;;;2.65;;
37349;SDS011;23231;52.358;4.926;2023-05-20T15:42:25;7.22;;;3.70;;
37349;SDS011;23231;52.358;4.926;2023-05-20T15:47:25;10.00;;;3.90;;
37349;SDS011;23231;52.358;4.926;2023-05-20T15:52:26;7.85;;;3.55;;
37349;SDS011;23231;52.358;4.926;2023-05-20T15:57:27;7.93;;;3.45;;
37349;SDS011;23231;52.358;4.926;2023-05-20T16:02:28;8.45;;;3.50;;
37349;SDS011;23231;52.358;4.926;2023-05-20T16:07:30;10.35;;;3.75;;
37349;SDS011;23231;52.358;4.926;2023-05-20T16:12:30;7.05;;;3.90;;
37349;SDS011;23231;52.358;4.926;2023-05-20T16:17:30;10.30;;;3.92;;
37349;SDS011;23231;52.358;4.926;2023-05-20T16:22:34;9.70;;;4.68;;
37349;SDS011;23231;52.358;4.926;2023-05-20T16:27:35;9.35;;;4.63;;
37349;SDS011;23231;52.358;4.926;2023-05-20T16:32:35;10.57;;;4.78;;
37349;SDS011;23231;52.358;4.926;2023-05-20T16:37:36;10.68;;;4.38;;
37349;SDS011;23231;52.358;4.926;2023-05-20T16:42:36;9.85;;;4.70;;
37349;SDS011;23231;52.358;4.926;2023-05-20T16:47:38;7.57;;;4.88;;
37349;SDS011;23231;52.358;4.926;2023-05-20T16:52:38;13.75;;;5.38;;
37349;SDS011;23231;52.358;4.926;2023-05-20T16:57:40;10.38;;;5.07;;
37349;SDS011;23231;52.358;4.926;2023-05-20T17:02:42;9.02;;;4.53;;
37349;SDS011;23231;52.358;4.926;2023-05-20T17:07:42;12.45;;;4.70;;
37349;SDS011;23231;52.358;4.926;2023-05-20T17:12:43;9.25;;;4.55;;
37349;SDS011;23231;52.358;4.926;2023-05-20T17:17:43;8.95;;;4.07;;
37349;SDS011;23231;52.358;4.926;2023-05-20T17:22:43;8.63;;;4.60;;
37349;SDS011;23231;52.358;4.926;2023-05-20T17:27:44;10.35;;;4.50;;
37349;SDS011;23231;52.358;4.926;2023-05-20T17:32:44;8.43;;;4.47;;
37349;SDS011;23231;52.358;4.926;2023-05-20T17:37:45;8.77;;;3.90;;
37349;SDS011;23231;52.358;4.926;2023-05-20T17:42:47;9.35;;;4.25;;
37349;SDS011;23231;52.358;4.926;2023-05-20T17:47:48;9.65;;;4.25;;
37349;SDS011;23231;52.358;4.926;2023-05-20T17:52:48;9.63;;;4.55;;
37349;SDS011;23231;52.358;4.926;2023-05-20T17:57:49;7.45;;;4.25;;
37349;SDS011;23231;52.358;4.926;2023-05-20T18:02:49;9.45;;;4.40;;
37349;SDS011;23231;52.358;4.926;2023-05-20T18:07:50;8.55;;;4.43;;
37349;SDS011;23231;52.358;4.926;2023-05-20T18:12:51;9.15;;;4.47;;
37349;SDS011;23231;52.358;4.926;2023-05-20T18:17:51;8.23;;;4.10;;
37349;SDS011;23231;52.358;4.926;2023-05-20T18:22:51;11.75;;;4.38;;
37349;SDS011;23231;52.358;4.926;2023-05-20T18:27:57;6.95;;;3.88;;
37349;SDS011;23231;52.358;4.926;2023-05-20T18:32:58;9.60;;;4.10;;
37349;SDS011;23231;52.358;4.926;2023-05-20T18:37:58;7.72;;;3.80;;
37349;SDS011;23231;52.358;4.926;2023-05-20T18:42:59;8.30;;;3.60;;
37349;SDS011;23231;52.358;4.926;2023-05-20T18:48:00;8.48;;;3.85;;
37349;SDS011;23231;52.358;4.926;2023-05-20T18:53:00;7.43;;;3.58;;
37349;SDS011;23231;52.358;4.926;2023-05-20T18:58:00;9.80;;;3.70;;
37349;SDS011;23231;52.358;4.926;2023-05-20T19:03:01;9.30;;;4.35;;
37349;SDS011;23231;52.358;4.926;2023-05-20T19:08:01;9.98;;;3.40;;
37349;SDS011;23231;52.358;4.926;2023-05-20T19:13:04;7.82;;;3.65;;
37349;SDS011;23231;52.358;4.926;2023-05-20T19:18:04;8.07;;;3.60;;
37349;SDS011;23231;52.358;4.926;2023-05-20T19:23:05;8.80;;;3.90;;
37349;SDS011;23231;52.358;4.926;2023-05-20T19:28:05;7.32;;;4.38;;
37349;SDS011;23231;52.358;4.926;2023-05-20T19:33:06;7.68;;;4.03;;
37349;SDS011;23231;52.358;4.926;2023-05-20T19:38:06;8.80;;;4.50;;
37349;SDS011;23231;52.358;4.926;2023-05-20T19:43:08;8.05;;;4.25;;
37349;SDS011;23231;52.358;4.926;2023-05-20T19:48:08;8.02;;;4.20;;
37349;SDS011;23231;52.358;4.926;2023-05-20T19:53:08;8.02;;;4.10;;
37349;SDS011;23231;52.358;4.926;2023-05-20T19:58:09;8.02;;;4.43;;
37349;SDS011;23231;52.358;4.926;2023-05-20T20:03:10;8.38;;;4.07;;
37349;SDS011;23231;52.358;4.926;2023-05-20T20:08:12;9.48;;;5.45;;
37349;SDS011;23231;52.358;4.926;2023-05-20T20:13:12;6.82;;;3.33;;
37349;SDS011;23231;52.358;4.926;2023-05-20T20:18:12;9.70;;;4.03;;
37349;SDS011;23231;52.358;4.926;2023-05-20T20:23:13;5.53;;;3.40;;
37349;SDS011;23231;52.358;4.926;2023-05-20T20:28:13;7.55;;;3.63;;
37349;SDS011;23231;52.358;4.926;2023-05-20T20:33:13;8.30;;;3.70;;
37349;SDS011;23231;52.358;4.926;2023-05-20T20:38:14;7.03;;;3.50;;
37349;SDS011;23231;52.358;4.926;2023-05-20T20:43:15;9.32;;;5.00;;
37349;SDS011;23231;52.358;4.926;2023-05-20T20:48:18;11.32;;;5.57;;
37349;SDS011;23231;52.358;4.926;2023-05-20T20:53:18;10.77;;;5.15;;
37349;SDS011;23231;52.358;4.926;2023-05-20T20:58:19;10.73;;;4.70;;
37349;SDS011;23231;52.358;4.926;2023-05-20T21:03:19;8.05;;;3.90;;
37349;SDS011;23231;52.358;4.926;2023-05-20T21:08:22;9.82;;;4.53;;
37349;SDS011;23231;52.358;4.926;2023-05-20T21:13:27;9.43;;;3.90;;
37349;SDS011;23231;52.358;4.926;2023-05-20T21:18:27;5.88;;;3.83;;
37349;SDS011;23231;52.358;4.926;2023-05-20T21:23:28;7.45;;;3.60;;
37349;SDS011;23231;52.358;4.926;2023-05-20T21:28:28;6.47;;;3.38;;
37349;SDS011;23231;52.358;4.926;2023-05-20T21:33:28;7.40;;;3.65;;
37349;SDS011;23231;52.358;4.926;2023-05-20T21:38:29;8.52;;;3.90;;
37349;SDS011;23231;52.358;4.926;2023-05-20T21:43:29;8.75;;;3.60;;
37349;SDS011;23231;52.358;4.926;2023-05-20T21:48:30;5.28;;;3.40;;
37349;SDS011;23231;52.358;4.926;2023-05-20T21:53:30;4.90;;;3.50;;
37349;SDS011;23231;52.358;4.926;2023-05-20T21:58:31;6.40;;;3.83;;
37349;SDS011;23231;52.358;4.926;2023-05-20T22:03:32;6.53;;;3.33;;
37349;SDS011;23231;52.358;4.926;2023-05-20T22:08:32;7.40;;;3.20;;
37349;SDS011;23231;52.358;4.926;2023-05-20T22:13:33;6.53;;;3.92;;
37349;SDS011;23231;52.358;4.926;2023-05-20T22:18:34;6.90;;;3.38;;
37349;SDS011;23231;52.358;4.926;2023-05-20T22:23:34;6.40;;;3.65;;
37349;SDS011;23231;52.358;4.926;2023-05-20T22:28:35;6.03;;;3.38;;
37349;SDS011;23231;52.358;4.926;2023-05-20T22:33:35;6.63;;;3.78;;
37349;SDS011;23231;52.358;4.926;2023-05-20T22:38:36;5.95;;;3.60;;
37349;SDS011;23231;52.358;4.926;2023-05-20T22:43:36;7.10;;;3.75;;
37349;SDS011;23231;52.358;4.926;2023-05-20T22:48:37;7.30;;;4.05;;
37349;SDS011;23231;52.358;4.926;2023-05-20T22:53:37;7.00;;;4.43;;
37349;SDS011;23231;52.358;4.926;2023-05-20T22:58:37;7.28;;;3.95;;
37349;SDS011;23231;52.358;4.926;2023-05-20T23:03:38;7.85;;;4.13;;
37349;SDS011;23231;52.358;4.926;2023-05-20T23:08:39;8.43;;;4.22;;
37349;SDS011;23231;52.358;4.926;2023-05-20T23:13:41;7.35;;;4.28;;
37349;SDS011;23231;52.358;4.926;2023-05-20T23:18:42;6.22;;;3.90;;
37349;SDS011;23231;52.358;4.926;2023-05-20T23:23:42;7.03;;;4.43;;
37349;SDS011;23231;52.358;4.926;2023-05-20T23:28:43;6.85;;;4.70;;
37349;SDS011;23231;52.358;4.926;2023-05-20T23:33:43;8.40;;;4.40;;
37349;SDS011;23231;52.358;4.926;2023-05-20T23:38:43;10.35;;;4.85;;
37349;SDS011;23231;52.358;4.926;2023-05-20T23:43:44;9.02;;;4.63;;
37349;SDS011;23231;52.358;4.926;2023-05-20T23:48:44;7.28;;;4.28;;
37349;SDS011;23231;52.358;4.926;2023-05-20T23:53:47;8.63;;;4.60;;
37349;SDS011;23231;52.358;4.926;2023-05-20T23:58:47;8.57;;;3.95;;
